sensor_id;sensor_type;location;lat;lon;timestamp;P1;durP1;ratioP1;P2;durP2;ratioP2
26038;SDS011;13815;52.374;4.882;2022-11-15T00:00:54;6.25;;;0.57;;
26038;SDS011;13815;52.374;4.882;2022-11-15T00:03:21;5.88;;;0.57;;
26038;SDS011;13815;52.374;4.882;2022-11-15T00:05:47;4.65;;;0.45;;
26038;SDS011;13815;52.374;4.882;2022-11-15T00:08:13;5.90;;;0.63;;
26038;SDS011;13815;52.374;4.882;2022-11-15T00:10:40;1.38;;;0.65;;
26038;SDS011;13815;52.374;4.882;2022-11-15T00:13:12;1.00;;;0.40;;
26038;SDS011;13815;52.374;4.882;2022-11-15T00:15:38;5.47;;;0.73;;
26038;SDS011;13815;52.374;4.882;2022-11-15T00:18:04;0.73;;;0.30;;
26038;SDS011;13815;52.374;4.882;2022-11-15T00:20:30;7.70;;;1.25;;
26038;SDS011;13815;52.374;4.882;2022-11-15T00:22:56;5.85;;;0.63;;
26038;SDS011;13815;52.374;4.882;2022-11-15T00:25:21;0.40;;;0.20;;
26038;SDS011;13815;52.374;4.882;2022-11-15T00:27:47;0.85;;;0.35;;
26038;SDS011;13815;52.374;4.882;2022-11-15T00:30:12;6.82;;;0.80;;
26038;SDS011;13815;52.374;4.882;2022-11-15T00:32:37;4.60;;;0.50;;
26038;SDS011;13815;52.374;4.882;2022-11-15T00:35:03;1.98;;;0.38;;
26038;SDS011;13815;52.374;4.882;2022-11-15T00:37:28;0.45;;;0.17;;
26038;SDS011;13815;52.374;4.882;2022-11-15T00:39:54;0.50;;;0.20;;
26038;SDS011;13815;52.374;4.882;2022-11-15T00:42:19;4.32;;;0.65;;
26038;SDS011;13815;52.374;4.882;2022-11-15T00:44:44;1.30;;;0.60;;
26038;SDS011;13815;52.374;4.882;2022-11-15T00:47:10;0.35;;;0.13;;
26038;SDS011;13815;52.374;4.882;2022-11-15T00:49:35;1.35;;;0.63;;
26038;SDS011;13815;52.374;4.882;2022-11-15T00:52:01;5.00;;;1.05;;
26038;SDS011;13815;52.374;4.882;2022-11-15T00:54:26;6.03;;;0.75;;
26038;SDS011;13815;52.374;4.882;2022-11-15T00:56:51;1.73;;;0.17;;
26038;SDS011;13815;52.374;4.882;2022-11-15T00:59:18;4.55;;;1.67;;
26038;SDS011;13815;52.374;4.882;2022-11-15T01:01:43;6.43;;;0.70;;
26038;SDS011;13815;52.374;4.882;2022-11-15T01:04:08;12.88;;;1.00;;
26038;SDS011;13815;52.374;4.882;2022-11-15T01:06:34;1.25;;;0.50;;
26038;SDS011;13815;52.374;4.882;2022-11-15T01:08:59;0.65;;;0.25;;
26038;SDS011;13815;52.374;4.882;2022-11-15T01:11:24;7.60;;;0.73;;
26038;SDS011;13815;52.374;4.882;2022-11-15T01:13:50;1.08;;;0.40;;
26038;SDS011;13815;52.374;4.882;2022-11-15T01:16:16;1.52;;;0.55;;
26038;SDS011;13815;52.374;4.882;2022-11-15T01:18:44;6.22;;;0.57;;
26038;SDS011;13815;52.374;4.882;2022-11-15T01:21:11;1.23;;;0.43;;
26038;SDS011;13815;52.374;4.882;2022-11-15T01:23:40;9.98;;;1.00;;
26038;SDS011;13815;52.374;4.882;2022-11-15T01:26:09;0.98;;;0.40;;
26038;SDS011;13815;52.374;4.882;2022-11-15T01:28:36;7.22;;;1.00;;
26038;SDS011;13815;52.374;4.882;2022-11-15T01:31:04;6.22;;;0.57;;
26038;SDS011;13815;52.374;4.882;2022-11-15T01:33:34;1.17;;;0.40;;
26038;SDS011;13815;52.374;4.882;2022-11-15T01:36:08;1.88;;;0.45;;
26038;SDS011;13815;52.374;4.882;2022-11-15T01:38:36;1.95;;;0.75;;
26038;SDS011;13815;52.374;4.882;2022-11-15T01:41:02;0.47;;;0.10;;
26038;SDS011;13815;52.374;4.882;2022-11-15T01:43:29;6.97;;;0.90;;
26038;SDS011;13815;52.374;4.882;2022-11-15T01:46:04;0.00;;;0.00;;
26038;SDS011;13815;52.374;4.882;2022-11-15T01:48:34;3.30;;;1.20;;
26038;SDS011;13815;52.374;4.882;2022-11-15T01:51:00;0.38;;;0.13;;
26038;SDS011;13815;52.374;4.882;2022-11-15T01:53:27;0.82;;;0.30;;
26038;SDS011;13815;52.374;4.882;2022-11-15T01:55:53;1.05;;;0.35;;
26038;SDS011;13815;52.374;4.882;2022-11-15T01:58:19;0.90;;;0.35;;
26038;SDS011;13815;52.374;4.882;2022-11-15T02:00:45;0.95;;;0.40;;
26038;SDS011;13815;52.374;4.882;2022-11-15T02:03:10;0.98;;;0.35;;
26038;SDS011;13815;52.374;4.882;2022-11-15T02:05:36;1.90;;;0.82;;
26038;SDS011;13815;52.374;4.882;2022-11-15T02:08:02;0.90;;;0.38;;
26038;SDS011;13815;52.374;4.882;2022-11-15T02:10:28;1.55;;;0.65;;
26038;SDS011;13815;52.374;4.882;2022-11-15T02:12:54;0.80;;;0.30;;
26038;SDS011;13815;52.374;4.882;2022-11-15T02:15:20;0.30;;;0.10;;
26038;SDS011;13815;52.374;4.882;2022-11-15T02:20:39;2.85;;;1.20;;
26038;SDS011;13815;52.374;4.882;2022-11-15T02:31:28;5.85;;;0.45;;
26038;SDS011;13815;52.374;4.882;2022-11-15T02:36:39;8.30;;;0.88;;
26038;SDS011;13815;52.374;4.882;2022-11-15T02:39:21;6.18;;;0.70;;
26038;SDS011;13815;52.374;4.882;2022-11-15T02:41:53;6.10;;;0.47;;
26038;SDS011;13815;52.374;4.882;2022-11-15T02:44:23;0.60;;;0.22;;
26038;SDS011;13815;52.374;4.882;2022-11-15T02:46:51;0.98;;;0.40;;
26038;SDS011;13815;52.374;4.882;2022-11-15T02:49:37;2.50;;;0.73;;
26038;SDS011;13815;52.374;4.882;2022-11-15T02:52:02;6.13;;;0.50;;
26038;SDS011;13815;52.374;4.882;2022-11-15T02:54:29;5.68;;;0.70;;
26038;SDS011;13815;52.374;4.882;2022-11-15T02:57:01;1.25;;;0.50;;
26038;SDS011;13815;52.374;4.882;2022-11-15T03:07:29;2.42;;;0.15;;
26038;SDS011;13815;52.374;4.882;2022-11-15T03:10:08;4.88;;;0.38;;
26038;SDS011;13815;52.374;4.882;2022-11-15T03:15:08;0.52;;;0.22;;
26038;SDS011;13815;52.374;4.882;2022-11-15T03:17:55;3.40;;;0.68;;
26038;SDS011;13815;52.374;4.882;2022-11-15T03:20:51;5.90;;;0.75;;
26038;SDS011;13815;52.374;4.882;2022-11-15T03:23:17;10.15;;;0.80;;
26038;SDS011;13815;52.374;4.882;2022-11-15T03:25:47;2.05;;;1.13;;
26038;SDS011;13815;52.374;4.882;2022-11-15T03:28:16;0.82;;;0.40;;
26038;SDS011;13815;52.374;4.882;2022-11-15T03:30:45;1.00;;;0.47;;
26038;SDS011;13815;52.374;4.882;2022-11-15T03:33:13;0.88;;;0.40;;
26038;SDS011;13815;52.374;4.882;2022-11-15T03:35:39;6.22;;;1.05;;
26038;SDS011;13815;52.374;4.882;2022-11-15T03:41:08;5.90;;;0.80;;
26038;SDS011;13815;52.374;4.882;2022-11-15T03:46:20;0.35;;;0.10;;
26038;SDS011;13815;52.374;4.882;2022-11-15T03:48:51;0.47;;;0.17;;
26038;SDS011;13815;52.374;4.882;2022-11-15T03:51:18;0.55;;;0.20;;
26038;SDS011;13815;52.374;4.882;2022-11-15T03:53:44;1.02;;;0.50;;
26038;SDS011;13815;52.374;4.882;2022-11-15T03:56:10;5.80;;;0.50;;
26038;SDS011;13815;52.374;4.882;2022-11-15T03:58:35;1.30;;;0.70;;
26038;SDS011;13815;52.374;4.882;2022-11-15T04:01:01;2.92;;;0.75;;
26038;SDS011;13815;52.374;4.882;2022-11-15T04:03:26;0.47;;;0.20;;
26038;SDS011;13815;52.374;4.882;2022-11-15T04:05:51;0.88;;;0.40;;
26038;SDS011;13815;52.374;4.882;2022-11-15T04:08:17;0.38;;;0.17;;
26038;SDS011;13815;52.374;4.882;2022-11-15T04:10:49;0.68;;;0.38;;
26038;SDS011;13815;52.374;4.882;2022-11-15T04:13:14;5.43;;;0.70;;
26038;SDS011;13815;52.374;4.882;2022-11-15T04:15:39;0.98;;;0.60;;
26038;SDS011;13815;52.374;4.882;2022-11-15T04:18:05;0.70;;;0.38;;
26038;SDS011;13815;52.374;4.882;2022-11-15T04:20:30;1.02;;;0.60;;
26038;SDS011;13815;52.374;4.882;2022-11-15T04:23:16;2.90;;;1.75;;
26038;SDS011;13815;52.374;4.882;2022-11-15T04:26:04;0.32;;;0.15;;
26038;SDS011;13815;52.374;4.882;2022-11-15T04:28:35;0.85;;;0.50;;
26038;SDS011;13815;52.374;4.882;2022-11-15T04:31:00;1.50;;;0.32;;
26038;SDS011;13815;52.374;4.882;2022-11-15T04:33:25;0.60;;;0.30;;
26038;SDS011;13815;52.374;4.882;2022-11-15T04:35:51;0.30;;;0.10;;
26038;SDS011;13815;52.374;4.882;2022-11-15T04:38:36;5.20;;;0.88;;
26038;SDS011;13815;52.374;4.882;2022-11-15T04:41:02;0.70;;;0.47;;
26038;SDS011;13815;52.374;4.882;2022-11-15T04:43:28;5.75;;;0.73;;
26038;SDS011;13815;52.374;4.882;2022-11-15T04:45:53;0.47;;;0.30;;
26038;SDS011;13815;52.374;4.882;2022-11-15T04:48:19;0.95;;;0.57;;
26038;SDS011;13815;52.374;4.882;2022-11-15T04:50:44;0.88;;;0.57;;
26038;SDS011;13815;52.374;4.882;2022-11-15T04:53:09;0.90;;;0.57;;
26038;SDS011;13815;52.374;4.882;2022-11-15T04:55:35;10.45;;;1.17;;
26038;SDS011;13815;52.374;4.882;2022-11-15T04:58:01;0.55;;;0.30;;
26038;SDS011;13815;52.374;4.882;2022-11-15T05:00:28;1.05;;;0.73;;
26038;SDS011;13815;52.374;4.882;2022-11-15T05:02:53;4.88;;;0.75;;
26038;SDS011;13815;52.374;4.882;2022-11-15T05:05:37;1.08;;;0.75;;
26038;SDS011;13815;52.374;4.882;2022-11-15T05:08:03;0.40;;;0.25;;
26038;SDS011;13815;52.374;4.882;2022-11-15T05:10:32;0.40;;;0.40;;
26038;SDS011;13815;52.374;4.882;2022-11-15T05:12:57;0.30;;;0.30;;
26038;SDS011;13815;52.374;4.882;2022-11-15T05:15:23;2.35;;;0.28;;
26038;SDS011;13815;52.374;4.882;2022-11-15T05:17:48;0.00;;;0.00;;
26038;SDS011;13815;52.374;4.882;2022-11-15T05:20:13;2.55;;;0.22;;
26038;SDS011;13815;52.374;4.882;2022-11-15T05:22:39;0.00;;;0.00;;
26038;SDS011;13815;52.374;4.882;2022-11-15T05:25:05;0.00;;;0.00;;
26038;SDS011;13815;52.374;4.882;2022-11-15T05:27:30;0.00;;;0.00;;
26038;SDS011;13815;52.374;4.882;2022-11-15T05:29:56;0.00;;;0.00;;
26038;SDS011;13815;52.374;4.882;2022-11-15T05:32:23;0.00;;;0.00;;
26038;SDS011;13815;52.374;4.882;2022-11-15T05:34:48;2.47;;;0.22;;
26038;SDS011;13815;52.374;4.882;2022-11-15T05:37:14;0.00;;;0.00;;
26038;SDS011;13815;52.374;4.882;2022-11-15T05:39:39;4.10;;;0.35;;
26038;SDS011;13815;52.374;4.882;2022-11-15T05:42:06;2.72;;;0.20;;
26038;SDS011;13815;52.374;4.882;2022-11-15T05:44:34;0.00;;;0.00;;
26038;SDS011;13815;52.374;4.882;2022-11-15T05:47:01;2.63;;;0.20;;
26038;SDS011;13815;52.374;4.882;2022-11-15T05:49:29;0.00;;;0.00;;
26038;SDS011;13815;52.374;4.882;2022-11-15T05:51:56;2.53;;;0.20;;
26038;SDS011;13815;52.374;4.882;2022-11-15T05:54:21;4.95;;;0.43;;
26038;SDS011;13815;52.374;4.882;2022-11-15T05:56:47;0.00;;;0.00;;
26038;SDS011;13815;52.374;4.882;2022-11-15T05:59:13;0.00;;;0.00;;
26038;SDS011;13815;52.374;4.882;2022-11-15T06:01:39;0.00;;;0.00;;
26038;SDS011;13815;52.374;4.882;2022-11-15T06:04:04;0.00;;;0.00;;
26038;SDS011;13815;52.374;4.882;2022-11-15T06:06:30;0.00;;;0.00;;
26038;SDS011;13815;52.374;4.882;2022-11-15T06:08:55;0.00;;;0.00;;
26038;SDS011;13815;52.374;4.882;2022-11-15T06:11:20;0.00;;;0.00;;
26038;SDS011;13815;52.374;4.882;2022-11-15T06:13:46;2.40;;;0.20;;
26038;SDS011;13815;52.374;4.882;2022-11-15T06:16:11;0.00;;;0.00;;
26038;SDS011;13815;52.374;4.882;2022-11-15T06:18:37;0.88;;;0.10;;
26038;SDS011;13815;52.374;4.882;2022-11-15T06:21:03;0.00;;;0.00;;
26038;SDS011;13815;52.374;4.882;2022-11-15T06:23:30;0.00;;;0.00;;
26038;SDS011;13815;52.374;4.882;2022-11-15T06:25:57;0.30;;;0.08;;
26038;SDS011;13815;52.374;4.882;2022-11-15T06:28:23;0.00;;;0.00;;
26038;SDS011;13815;52.374;4.882;2022-11-15T06:30:48;0.00;;;0.00;;
26038;SDS011;13815;52.374;4.882;2022-11-15T06:33:14;1.40;;;0.13;;
26038;SDS011;13815;52.374;4.882;2022-11-15T06:35:39;0.00;;;0.00;;
26038;SDS011;13815;52.374;4.882;2022-11-15T06:38:06;0.00;;;0.00;;
26038;SDS011;13815;52.374;4.882;2022-11-15T06:40:34;0.00;;;0.00;;
26038;SDS011;13815;52.374;4.882;2022-11-15T06:43:00;0.00;;;0.00;;
26038;SDS011;13815;52.374;4.882;2022-11-15T06:45:25;0.00;;;0.00;;
26038;SDS011;13815;52.374;4.882;2022-11-15T06:47:51;0.00;;;0.00;;
26038;SDS011;13815;52.374;4.882;2022-11-15T06:50:16;0.00;;;0.00;;
26038;SDS011;13815;52.374;4.882;2022-11-15T06:52:41;0.00;;;0.00;;
26038;SDS011;13815;52.374;4.882;2022-11-15T06:55:07;0.00;;;0.00;;
26038;SDS011;13815;52.374;4.882;2022-11-15T06:57:33;0.00;;;0.00;;
26038;SDS011;13815;52.374;4.882;2022-11-15T06:59:58;1.35;;;0.15;;
26038;SDS011;13815;52.374;4.882;2022-11-15T07:02:24;0.00;;;0.00;;
26038;SDS011;13815;52.374;4.882;2022-11-15T07:04:49;0.00;;;0.00;;
26038;SDS011;13815;52.374;4.882;2022-11-15T07:07:14;0.00;;;0.00;;
26038;SDS011;13815;52.374;4.882;2022-11-15T07:09:40;0.00;;;0.00;;
26038;SDS011;13815;52.374;4.882;2022-11-15T07:12:05;0.00;;;0.00;;
26038;SDS011;13815;52.374;4.882;2022-11-15T07:14:30;2.08;;;0.20;;
26038;SDS011;13815;52.374;4.882;2022-11-15T07:16:56;0.00;;;0.00;;
26038;SDS011;13815;52.374;4.882;2022-11-15T07:19:21;1.65;;;0.20;;
26038;SDS011;13815;52.374;4.882;2022-11-15T07:21:46;0.38;;;0.08;;
26038;SDS011;13815;52.374;4.882;2022-11-15T07:24:13;0.00;;;0.00;;
26038;SDS011;13815;52.374;4.882;2022-11-15T07:26:38;0.38;;;0.05;;
26038;SDS011;13815;52.374;4.882;2022-11-15T07:29:03;0.00;;;0.00;;
26038;SDS011;13815;52.374;4.882;2022-11-15T07:31:30;0.00;;;0.00;;
26038;SDS011;13815;52.374;4.882;2022-11-15T07:33:56;0.90;;;0.20;;
26038;SDS011;13815;52.374;4.882;2022-11-15T07:36:22;0.00;;;0.00;;
26038;SDS011;13815;52.374;4.882;2022-11-15T07:38:48;0.00;;;0.00;;
26038;SDS011;13815;52.374;4.882;2022-11-15T07:41:13;0.00;;;0.00;;
26038;SDS011;13815;52.374;4.882;2022-11-15T07:43:39;0.00;;;0.00;;
26038;SDS011;13815;52.374;4.882;2022-11-15T07:46:05;3.85;;;0.47;;
26038;SDS011;13815;52.374;4.882;2022-11-15T07:48:34;0.00;;;0.00;;
26038;SDS011;13815;52.374;4.882;2022-11-15T07:51:10;0.45;;;0.05;;
26038;SDS011;13815;52.374;4.882;2022-11-15T07:53:39;0.00;;;0.00;;
26038;SDS011;13815;52.374;4.882;2022-11-15T07:56:06;1.65;;;0.20;;
26038;SDS011;13815;52.374;4.882;2022-11-15T07:58:32;0.00;;;0.00;;
26038;SDS011;13815;52.374;4.882;2022-11-15T08:00:57;0.00;;;0.00;;
26038;SDS011;13815;52.374;4.882;2022-11-15T08:03:23;0.00;;;0.00;;
26038;SDS011;13815;52.374;4.882;2022-11-15T08:05:51;2.40;;;0.20;;
26038;SDS011;13815;52.374;4.882;2022-11-15T08:08:17;0.00;;;0.00;;
26038;SDS011;13815;52.374;4.882;2022-11-15T08:10:42;0.43;;;0.05;;
26038;SDS011;13815;52.374;4.882;2022-11-15T08:13:08;0.00;;;0.00;;
26038;SDS011;13815;52.374;4.882;2022-11-15T08:15:35;0.10;;;0.10;;
26038;SDS011;13815;52.374;4.882;2022-11-15T08:18:03;0.10;;;0.10;;
26038;SDS011;13815;52.374;4.882;2022-11-15T08:20:30;0.00;;;0.00;;
26038;SDS011;13815;52.374;4.882;2022-11-15T08:22:57;0.00;;;0.00;;
26038;SDS011;13815;52.374;4.882;2022-11-15T08:25:23;0.00;;;0.00;;
26038;SDS011;13815;52.374;4.882;2022-11-15T08:27:54;0.00;;;0.00;;
26038;SDS011;13815;52.374;4.882;2022-11-15T08:30:21;1.98;;;0.25;;
26038;SDS011;13815;52.374;4.882;2022-11-15T08:32:47;0.00;;;0.00;;
26038;SDS011;13815;52.374;4.882;2022-11-15T08:35:13;2.33;;;0.22;;
26038;SDS011;13815;52.374;4.882;2022-11-15T08:37:40;0.10;;;0.10;;
26038;SDS011;13815;52.374;4.882;2022-11-15T08:40:09;0.08;;;0.08;;
26038;SDS011;13815;52.374;4.882;2022-11-15T08:42:34;8.10;;;1.15;;
26038;SDS011;13815;52.374;4.882;2022-11-15T08:45:00;0.68;;;0.47;;
26038;SDS011;13815;52.374;4.882;2022-11-15T08:47:25;0.68;;;0.40;;
26038;SDS011;13815;52.374;4.882;2022-11-15T08:49:51;1.80;;;1.40;;
26038;SDS011;13815;52.374;4.882;2022-11-15T08:52:16;1.80;;;1.30;;
26038;SDS011;13815;52.374;4.882;2022-11-15T08:54:42;1.13;;;1.02;;
26038;SDS011;13815;52.374;4.882;2022-11-15T08:57:08;2.00;;;1.30;;
26038;SDS011;13815;52.374;4.882;2022-11-15T08:59:34;0.60;;;0.30;;
26038;SDS011;13815;52.374;4.882;2022-11-15T09:02:00;8.35;;;1.83;;
26038;SDS011;13815;52.374;4.882;2022-11-15T09:04:25;3.67;;;2.15;;
26038;SDS011;13815;52.374;4.882;2022-11-15T09:06:54;6.70;;;1.45;;
26038;SDS011;13815;52.374;4.882;2022-11-15T09:09:19;1.63;;;0.90;;
26038;SDS011;13815;52.374;4.882;2022-11-15T09:11:47;3.25;;;1.45;;
26038;SDS011;13815;52.374;4.882;2022-11-15T09:14:13;1.95;;;0.90;;
26038;SDS011;13815;52.374;4.882;2022-11-15T09:16:39;1.88;;;0.73;;
26038;SDS011;13815;52.374;4.882;2022-11-15T09:19:05;1.58;;;0.70;;
26038;SDS011;13815;52.374;4.882;2022-11-15T09:21:31;2.75;;;1.00;;
26038;SDS011;13815;52.374;4.882;2022-11-15T09:23:56;2.38;;;0.80;;
26038;SDS011;13815;52.374;4.882;2022-11-15T09:26:21;10.70;;;1.45;;
26038;SDS011;13815;52.374;4.882;2022-11-15T09:28:47;7.55;;;1.67;;
26038;SDS011;13815;52.374;4.882;2022-11-15T09:31:12;4.20;;;1.02;;
26038;SDS011;13815;52.374;4.882;2022-11-15T09:33:40;10.82;;;1.15;;
26038;SDS011;13815;52.374;4.882;2022-11-15T09:36:08;2.65;;;0.98;;
26038;SDS011;13815;52.374;4.882;2022-11-15T09:38:35;5.65;;;1.90;;
26038;SDS011;13815;52.374;4.882;2022-11-15T09:41:25;9.05;;;1.70;;
26038;SDS011;13815;52.374;4.882;2022-11-15T09:44:12;9.90;;;1.60;;
26038;SDS011;13815;52.374;4.882;2022-11-15T09:49:53;13.57;;;2.15;;
26038;SDS011;13815;52.374;4.882;2022-11-15T09:52:22;17.48;;;2.58;;
26038;SDS011;13815;52.374;4.882;2022-11-15T09:54:48;15.40;;;4.30;;
26038;SDS011;13815;52.374;4.882;2022-11-15T10:00:40;14.18;;;2.03;;
26038;SDS011;13815;52.374;4.882;2022-11-15T10:06:00;4.60;;;1.00;;
26038;SDS011;13815;52.374;4.882;2022-11-15T10:10:59;10.38;;;1.58;;
26038;SDS011;13815;52.374;4.882;2022-11-15T10:13:26;8.77;;;2.08;;
26038;SDS011;13815;52.374;4.882;2022-11-15T10:15:54;14.52;;;2.80;;
26038;SDS011;13815;52.374;4.882;2022-11-15T10:18:32;6.60;;;1.35;;
26038;SDS011;13815;52.374;4.882;2022-11-15T10:21:20;6.40;;;1.83;;
26038;SDS011;13815;52.374;4.882;2022-11-15T10:23:47;9.65;;;1.40;;
26038;SDS011;13815;52.374;4.882;2022-11-15T10:26:13;2.33;;;1.08;;
26038;SDS011;13815;52.374;4.882;2022-11-15T10:28:41;1.80;;;1.38;;
26038;SDS011;13815;52.374;4.882;2022-11-15T10:31:20;8.95;;;2.08;;
26038;SDS011;13815;52.374;4.882;2022-11-15T10:33:50;2.35;;;1.08;;
26038;SDS011;13815;52.374;4.882;2022-11-15T10:41:14;0.95;;;0.35;;
26038;SDS011;13815;52.374;4.882;2022-11-15T10:43:40;9.52;;;1.83;;
26038;SDS011;13815;52.374;4.882;2022-11-15T10:46:22;7.07;;;2.25;;
26038;SDS011;13815;52.374;4.882;2022-11-15T10:48:48;6.22;;;1.92;;
26038;SDS011;13815;52.374;4.882;2022-11-15T10:51:21;3.88;;;1.08;;
26038;SDS011;13815;52.374;4.882;2022-11-15T10:53:47;5.50;;;1.55;;
26038;SDS011;13815;52.374;4.882;2022-11-15T10:56:14;5.28;;;1.48;;
26038;SDS011;13815;52.374;4.882;2022-11-15T10:58:43;7.25;;;2.00;;
26038;SDS011;13815;52.374;4.882;2022-11-15T11:01:12;4.80;;;1.67;;
26038;SDS011;13815;52.374;4.882;2022-11-15T11:04:03;2.75;;;1.20;;
26038;SDS011;13815;52.374;4.882;2022-11-15T11:06:31;7.72;;;2.15;;
26038;SDS011;13815;52.374;4.882;2022-11-15T11:11:54;7.38;;;2.13;;
26038;SDS011;13815;52.374;4.882;2022-11-15T11:16:52;4.55;;;1.75;;
26038;SDS011;13815;52.374;4.882;2022-11-15T11:22:23;7.10;;;2.22;;
26038;SDS011;13815;52.374;4.882;2022-11-15T11:28:11;12.02;;;3.28;;
26038;SDS011;13815;52.374;4.882;2022-11-15T11:54:32;19.33;;;2.83;;
26038;SDS011;13815;52.374;4.882;2022-11-15T11:57:06;15.02;;;2.63;;
26038;SDS011;13815;52.374;4.882;2022-11-15T12:07:58;12.48;;;2.38;;
26038;SDS011;13815;52.374;4.882;2022-11-15T12:10:29;14.82;;;3.15;;
26038;SDS011;13815;52.374;4.882;2022-11-15T12:13:00;19.83;;;3.70;;
26038;SDS011;13815;52.374;4.882;2022-11-15T12:15:35;15.23;;;3.15;;
26038;SDS011;13815;52.374;4.882;2022-11-15T12:18:23;22.50;;;4.15;;
26038;SDS011;13815;52.374;4.882;2022-11-15T12:20:51;11.57;;;2.95;;
26038;SDS011;13815;52.374;4.882;2022-11-15T12:23:27;23.50;;;3.90;;
26038;SDS011;13815;52.374;4.882;2022-11-15T12:25:56;9.27;;;3.17;;
26038;SDS011;13815;52.374;4.882;2022-11-15T12:31:12;25.58;;;4.47;;
26038;SDS011;13815;52.374;4.882;2022-11-15T12:33:45;11.73;;;3.20;;
26038;SDS011;13815;52.374;4.882;2022-11-15T13:02:21;21.75;;;4.00;;
26038;SDS011;13815;52.374;4.882;2022-11-15T13:04:47;18.30;;;5.22;;
26038;SDS011;13815;52.374;4.882;2022-11-15T13:10:07;4.30;;;2.95;;
26038;SDS011;13815;52.374;4.882;2022-11-15T13:15:38;12.65;;;4.30;;
26038;SDS011;13815;52.374;4.882;2022-11-15T13:18:26;7.18;;;3.40;;
26038;SDS011;13815;52.374;4.882;2022-11-15T13:21:02;8.18;;;3.83;;
26038;SDS011;13815;52.374;4.882;2022-11-15T13:23:52;6.57;;;3.55;;
26038;SDS011;13815;52.374;4.882;2022-11-15T13:26:18;7.68;;;3.92;;
26038;SDS011;13815;52.374;4.882;2022-11-15T13:28:46;7.40;;;3.80;;
26038;SDS011;13815;52.374;4.882;2022-11-15T13:33:42;1.10;;;1.10;;
26038;SDS011;13815;52.374;4.882;2022-11-15T13:36:12;20.52;;;3.83;;
26038;SDS011;13815;52.374;4.882;2022-11-15T13:39:06;20.95;;;5.55;;
26038;SDS011;13815;52.374;4.882;2022-11-15T13:41:47;5.72;;;3.53;;
26038;SDS011;13815;52.374;4.882;2022-11-15T13:44:20;8.88;;;5.40;;
26038;SDS011;13815;52.374;4.882;2022-11-15T13:46:59;4.05;;;2.92;;
26038;SDS011;13815;52.374;4.882;2022-11-15T13:49:32;24.38;;;5.90;;
26038;SDS011;13815;52.374;4.882;2022-11-15T13:51:58;13.40;;;4.38;;
26038;SDS011;13815;52.374;4.882;2022-11-15T13:57:04;6.72;;;3.58;;
26038;SDS011;13815;52.374;4.882;2022-11-15T13:59:35;8.38;;;3.42;;
26038;SDS011;13815;52.374;4.882;2022-11-15T14:02:12;17.55;;;4.15;;
26038;SDS011;13815;52.374;4.882;2022-11-15T14:04:47;5.28;;;3.55;;
26038;SDS011;13815;52.374;4.882;2022-11-15T14:07:20;6.68;;;3.85;;
26038;SDS011;13815;52.374;4.882;2022-11-15T14:09:47;6.72;;;4.20;;
26038;SDS011;13815;52.374;4.882;2022-11-15T14:12:22;7.13;;;4.18;;
26038;SDS011;13815;52.374;4.882;2022-11-15T14:14:51;7.90;;;4.13;;
26038;SDS011;13815;52.374;4.882;2022-11-15T14:17:21;7.57;;;4.88;;
26038;SDS011;13815;52.374;4.882;2022-11-15T14:20:02;8.38;;;3.95;;
26038;SDS011;13815;52.374;4.882;2022-11-15T14:22:51;5.53;;;3.45;;
26038;SDS011;13815;52.374;4.882;2022-11-15T14:25:19;9.48;;;4.10;;
26038;SDS011;13815;52.374;4.882;2022-11-15T14:30:42;22.38;;;4.18;;
26038;SDS011;13815;52.374;4.882;2022-11-15T14:33:19;5.90;;;3.35;;
26038;SDS011;13815;52.374;4.882;2022-11-15T14:35:56;11.77;;;3.60;;
26038;SDS011;13815;52.374;4.882;2022-11-15T14:38:29;10.57;;;4.15;;
26038;SDS011;13815;52.374;4.882;2022-11-15T14:40:54;6.13;;;3.20;;
26038;SDS011;13815;52.374;4.882;2022-11-15T14:43:21;6.93;;;3.38;;
26038;SDS011;13815;52.374;4.882;2022-11-15T14:45:47;5.85;;;2.83;;
26038;SDS011;13815;52.374;4.882;2022-11-15T14:48:17;15.60;;;3.92;;
26038;SDS011;13815;52.374;4.882;2022-11-15T14:50:43;8.52;;;3.75;;
26038;SDS011;13815;52.374;4.882;2022-11-15T14:53:12;12.02;;;2.90;;
26038;SDS011;13815;52.374;4.882;2022-11-15T14:55:42;3.70;;;2.80;;
26038;SDS011;13815;52.374;4.882;2022-11-15T14:58:09;2.20;;;2.00;;
26038;SDS011;13815;52.374;4.882;2022-11-15T15:00:35;13.98;;;3.35;;
26038;SDS011;13815;52.374;4.882;2022-11-15T15:03:01;10.27;;;4.28;;
26038;SDS011;13815;52.374;4.882;2022-11-15T15:05:32;5.95;;;3.72;;
26038;SDS011;13815;52.374;4.882;2022-11-15T15:08:02;8.30;;;3.17;;
26038;SDS011;13815;52.374;4.882;2022-11-15T15:10:30;3.33;;;2.65;;
26038;SDS011;13815;52.374;4.882;2022-11-15T15:12:59;20.75;;;4.03;;
26038;SDS011;13815;52.374;4.882;2022-11-15T15:15:26;3.03;;;2.53;;
26038;SDS011;13815;52.374;4.882;2022-11-15T15:17:58;14.18;;;3.47;;
26038;SDS011;13815;52.374;4.882;2022-11-15T15:20:24;5.38;;;3.25;;
26038;SDS011;13815;52.374;4.882;2022-11-15T15:22:50;7.50;;;3.70;;
26038;SDS011;13815;52.374;4.882;2022-11-15T15:27:57;11.15;;;4.00;;
26038;SDS011;13815;52.374;4.882;2022-11-15T15:30:24;9.68;;;3.60;;
26038;SDS011;13815;52.374;4.882;2022-11-15T15:32:50;5.85;;;3.20;;
26038;SDS011;13815;52.374;4.882;2022-11-15T15:35:16;11.95;;;4.22;;
26038;SDS011;13815;52.374;4.882;2022-11-15T15:37:43;11.00;;;3.40;;
26038;SDS011;13815;52.374;4.882;2022-11-15T15:40:10;2.65;;;2.13;;
26038;SDS011;13815;52.374;4.882;2022-11-15T15:42:50;7.40;;;2.92;;
26038;SDS011;13815;52.374;4.882;2022-11-15T15:45:18;7.63;;;3.17;;
26038;SDS011;13815;52.374;4.882;2022-11-15T15:47:44;12.85;;;3.28;;
26038;SDS011;13815;52.374;4.882;2022-11-15T15:50:20;9.43;;;2.92;;
26038;SDS011;13815;52.374;4.882;2022-11-15T15:52:52;6.80;;;3.47;;
26038;SDS011;13815;52.374;4.882;2022-11-15T15:55:18;12.27;;;3.55;;
26038;SDS011;13815;52.374;4.882;2022-11-15T15:57:46;4.07;;;3.40;;
26038;SDS011;13815;52.374;4.882;2022-11-15T16:00:12;13.25;;;3.30;;
26038;SDS011;13815;52.374;4.882;2022-11-15T16:02:38;4.78;;;3.08;;
26038;SDS011;13815;52.374;4.882;2022-11-15T16:05:04;7.88;;;3.80;;
26038;SDS011;13815;52.374;4.882;2022-11-15T16:07:30;15.68;;;3.85;;
26038;SDS011;13815;52.374;4.882;2022-11-15T16:09:56;4.60;;;3.30;;
26038;SDS011;13815;52.374;4.882;2022-11-15T16:12:37;7.05;;;4.03;;
26038;SDS011;13815;52.374;4.882;2022-11-15T16:15:03;3.92;;;3.25;;
26038;SDS011;13815;52.374;4.882;2022-11-15T16:17:30;5.28;;;3.60;;
26038;SDS011;13815;52.374;4.882;2022-11-15T16:19:59;15.43;;;5.13;;
26038;SDS011;13815;52.374;4.882;2022-11-15T16:22:27;9.18;;;4.35;;
26038;SDS011;13815;52.374;4.882;2022-11-15T16:24:54;14.75;;;5.10;;
26038;SDS011;13815;52.374;4.882;2022-11-15T16:27:19;3.22;;;2.97;;
26038;SDS011;13815;52.374;4.882;2022-11-15T16:29:46;8.48;;;3.75;;
26038;SDS011;13815;52.374;4.882;2022-11-15T16:32:12;10.25;;;3.90;;
26038;SDS011;13815;52.374;4.882;2022-11-15T16:34:40;11.57;;;4.82;;
26038;SDS011;13815;52.374;4.882;2022-11-15T16:37:08;5.00;;;3.70;;
26038;SDS011;13815;52.374;4.882;2022-11-15T16:39:45;15.57;;;5.25;;
26038;SDS011;13815;52.374;4.882;2022-11-15T16:42:11;7.60;;;4.40;;
26038;SDS011;13815;52.374;4.882;2022-11-15T16:44:36;9.82;;;3.97;;
26038;SDS011;13815;52.374;4.882;2022-11-15T16:47:02;10.65;;;4.47;;
26038;SDS011;13815;52.374;4.882;2022-11-15T16:49:31;14.93;;;5.00;;
26038;SDS011;13815;52.374;4.882;2022-11-15T16:51:58;3.45;;;2.83;;
26038;SDS011;13815;52.374;4.882;2022-11-15T16:54:26;4.25;;;2.83;;
26038;SDS011;13815;52.374;4.882;2022-11-15T16:56:51;12.63;;;3.50;;
26038;SDS011;13815;52.374;4.882;2022-11-15T16:59:17;2.47;;;2.10;;
26038;SDS011;13815;52.374;4.882;2022-11-15T17:01:47;22.92;;;4.57;;
26038;SDS011;13815;52.374;4.882;2022-11-15T17:04:16;2.47;;;1.63;;
26038;SDS011;13815;52.374;4.882;2022-11-15T17:06:42;5.32;;;2.25;;
26038;SDS011;13815;52.374;4.882;2022-11-15T17:09:13;8.50;;;1.67;;